sensor_id;sensor_type;location;lat;lon;timestamp;P1;durP1;ratioP1;P2;durP2;ratioP2
41219;SDS011;26951;47.338;9.196;2023-12-20T00:00:38;4.88;;;4.00;;
41219;SDS011;26951;47.338;9.196;2023-12-20T00:03:22;5.90;;;3.90;;
41219;SDS011;26951;47.338;9.196;2023-12-20T00:06:07;5.20;;;4.10;;
41219;SDS011;26951;47.338;9.196;2023-12-20T00:08:52;4.97;;;3.97;;
41219;SDS011;26951;47.338;9.196;2023-12-20T00:11:37;4.78;;;3.95;;
41219;SDS011;26951;47.338;9.196;2023-12-20T00:14:21;7.18;;;4.25;;
41219;SDS011;26951;47.338;9.196;2023-12-20T00:17:05;4.22;;;3.45;;
41219;SDS011;26951;47.338;9.196;2023-12-20T00:19:49;5.53;;;3.53;;
41219;SDS011;26951;47.338;9.196;2023-12-20T00:22:33;4.40;;;3.47;;
41219;SDS011;26951;47.338;9.196;2023-12-20T00:25:17;4.25;;;3.70;;
41219;SDS011;26951;47.338;9.196;2023-12-20T00:28:01;5.55;;;3.75;;
41219;SDS011;26951;47.338;9.196;2023-12-20T00:30:46;5.20;;;3.60;;
41219;SDS011;26951;47.338;9.196;2023-12-20T00:33:30;6.10;;;3.78;;
41219;SDS011;26951;47.338;9.196;2023-12-20T00:36:14;4.65;;;3.78;;
41219;SDS011;26951;47.338;9.196;2023-12-20T00:38:58;4.95;;;3.78;;
41219;SDS011;26951;47.338;9.196;2023-12-20T00:41:43;5.32;;;4.22;;
41219;SDS011;26951;47.338;9.196;2023-12-20T00:44:27;5.80;;;3.95;;
41219;SDS011;26951;47.338;9.196;2023-12-20T00:47:11;5.25;;;3.83;;
41219;SDS011;26951;47.338;9.196;2023-12-20T00:49:57;5.05;;;4.03;;
41219;SDS011;26951;47.338;9.196;2023-12-20T00:52:42;8.85;;;4.40;;
41219;SDS011;26951;47.338;9.196;2023-12-20T00:55:26;4.32;;;3.70;;
41219;SDS011;26951;47.338;9.196;2023-12-20T00:58:10;5.22;;;4.25;;
41219;SDS011;26951;47.338;9.196;2023-12-20T01:00:54;5.32;;;4.00;;
41219;SDS011;26951;47.338;9.196;2023-12-20T01:03:38;5.53;;;4.03;;
41219;SDS011;26951;47.338;9.196;2023-12-20T01:06:22;4.60;;;3.88;;
41219;SDS011;26951;47.338;9.196;2023-12-20T01:09:06;4.13;;;3.35;;
41219;SDS011;26951;47.338;9.196;2023-12-20T01:11:50;4.20;;;3.53;;
41219;SDS011;26951;47.338;9.196;2023-12-20T01:14:34;4.15;;;3.42;;
41219;SDS011;26951;47.338;9.196;2023-12-20T01:17:18;5.47;;;3.70;;
41219;SDS011;26951;47.338;9.196;2023-12-20T01:20:02;4.10;;;3.33;;
41219;SDS011;26951;47.338;9.196;2023-12-20T01:22:47;5.00;;;3.65;;
41219;SDS011;26951;47.338;9.196;2023-12-20T01:25:31;5.80;;;4.18;;
41219;SDS011;26951;47.338;9.196;2023-12-20T01:28:15;4.00;;;3.40;;
41219;SDS011;26951;47.338;9.196;2023-12-20T01:30:59;5.22;;;3.42;;
41219;SDS011;26951;47.338;9.196;2023-12-20T01:33:43;4.85;;;3.83;;
41219;SDS011;26951;47.338;9.196;2023-12-20T01:36:27;4.15;;;3.38;;
41219;SDS011;26951;47.338;9.196;2023-12-20T01:39:11;4.38;;;3.47;;
41219;SDS011;26951;47.338;9.196;2023-12-20T01:41:54;4.55;;;3.88;;
41219;SDS011;26951;47.338;9.196;2023-12-20T01:44:38;5.30;;;4.15;;
41219;SDS011;26951;47.338;9.196;2023-12-20T01:47:22;5.60;;;3.50;;
41219;SDS011;26951;47.338;9.196;2023-12-20T01:50:07;5.90;;;3.63;;
41219;SDS011;26951;47.338;9.196;2023-12-20T01:52:52;4.90;;;2.95;;
41219;SDS011;26951;47.338;9.196;2023-12-20T01:55:41;5.13;;;3.45;;
41219;SDS011;26951;47.338;9.196;2023-12-20T01:58:25;6.10;;;4.13;;
41219;SDS011;26951;47.338;9.196;2023-12-20T02:06:40;5.53;;;3.83;;
41219;SDS011;26951;47.338;9.196;2023-12-20T02:09:26;5.50;;;3.60;;
41219;SDS011;26951;47.338;9.196;2023-12-20T02:12:12;5.53;;;3.63;;
41219;SDS011;26951;47.338;9.196;2023-12-20T02:14:56;4.45;;;3.10;;
41219;SDS011;26951;47.338;9.196;2023-12-20T02:17:40;4.70;;;3.28;;
41219;SDS011;26951;47.338;9.196;2023-12-20T02:20:24;4.40;;;3.28;;
41219;SDS011;26951;47.338;9.196;2023-12-20T02:23:08;5.88;;;3.53;;
41219;SDS011;26951;47.338;9.196;2023-12-20T02:25:52;5.68;;;3.00;;
41219;SDS011;26951;47.338;9.196;2023-12-20T02:28:36;3.83;;;2.90;;
41219;SDS011;26951;47.338;9.196;2023-12-20T02:31:21;4.72;;;3.00;;
41219;SDS011;26951;47.338;9.196;2023-12-20T02:34:06;4.18;;;3.10;;
41219;SDS011;26951;47.338;9.196;2023-12-20T02:36:51;5.57;;;3.25;;
41219;SDS011;26951;47.338;9.196;2023-12-20T02:39:35;4.88;;;3.08;;
41219;SDS011;26951;47.338;9.196;2023-12-20T02:42:19;3.70;;;2.80;;
41219;SDS011;26951;47.338;9.196;2023-12-20T02:45:03;3.95;;;3.25;;
41219;SDS011;26951;47.338;9.196;2023-12-20T02:47:48;4.90;;;3.63;;
41219;SDS011;26951;47.338;9.196;2023-12-20T02:50:32;3.72;;;3.00;;
41219;SDS011;26951;47.338;9.196;2023-12-20T02:53:16;5.38;;;3.13;;
41219;SDS011;26951;47.338;9.196;2023-12-20T02:56:00;4.47;;;3.05;;
41219;SDS011;26951;47.338;9.196;2023-12-20T02:58:44;3.72;;;3.15;;
41219;SDS011;26951;47.338;9.196;2023-12-20T03:01:29;3.95;;;3.00;;
41219;SDS011;26951;47.338;9.196;2023-12-20T03:04:13;4.20;;;3.20;;
41219;SDS011;26951;47.338;9.196;2023-12-20T03:06:57;3.97;;;3.10;;
41219;SDS011;26951;47.338;9.196;2023-12-20T03:09:42;4.25;;;2.92;;
41219;SDS011;26951;47.338;9.196;2023-12-20T03:12:26;3.53;;;2.83;;
41219;SDS011;26951;47.338;9.196;2023-12-20T03:15:10;4.35;;;3.20;;
41219;SDS011;26951;47.338;9.196;2023-12-20T03:17:55;3.80;;;2.85;;
41219;SDS011;26951;47.338;9.196;2023-12-20T03:20:39;3.88;;;2.92;;
41219;SDS011;26951;47.338;9.196;2023-12-20T03:23:24;4.10;;;3.00;;
41219;SDS011;26951;47.338;9.196;2023-12-20T03:26:11;3.55;;;2.72;;
41219;SDS011;26951;47.338;9.196;2023-12-20T03:28:54;3.80;;;2.80;;
41219;SDS011;26951;47.338;9.196;2023-12-20T03:31:38;3.20;;;2.58;;
41219;SDS011;26951;47.338;9.196;2023-12-20T03:34:23;3.33;;;2.45;;
41219;SDS011;26951;47.338;9.196;2023-12-20T03:37:07;4.22;;;2.53;;
41219;SDS011;26951;47.338;9.196;2023-12-20T03:39:51;3.30;;;2.75;;
41219;SDS011;26951;47.338;9.196;2023-12-20T03:42:35;2.60;;;2.38;;
41219;SDS011;26951;47.338;9.196;2023-12-20T03:45:19;4.90;;;3.10;;
41219;SDS011;26951;47.338;9.196;2023-12-20T03:48:04;4.72;;;2.97;;
41219;SDS011;26951;47.338;9.196;2023-12-20T03:50:49;7.27;;;3.03;;
41219;SDS011;26951;47.338;9.196;2023-12-20T03:53:33;3.85;;;2.88;;
41219;SDS011;26951;47.338;9.196;2023-12-20T03:56:17;3.80;;;2.78;;
41219;SDS011;26951;47.338;9.196;2023-12-20T03:59:01;4.85;;;3.00;;
41219;SDS011;26951;47.338;9.196;2023-12-20T04:01:45;3.70;;;2.92;;
41219;SDS011;26951;47.338;9.196;2023-12-20T04:04:29;4.78;;;3.13;;
41219;SDS011;26951;47.338;9.196;2023-12-20T04:07:13;4.70;;;3.33;;
41219;SDS011;26951;47.338;9.196;2023-12-20T04:09:58;4.28;;;3.40;;
41219;SDS011;26951;47.338;9.196;2023-12-20T04:12:43;5.82;;;3.38;;
41219;SDS011;26951;47.338;9.196;2023-12-20T04:15:27;4.90;;;3.70;;
41219;SDS011;26951;47.338;9.196;2023-12-20T04:18:11;4.78;;;3.80;;
41219;SDS011;26951;47.338;9.196;2023-12-20T04:20:55;4.80;;;3.58;;
41219;SDS011;26951;47.338;9.196;2023-12-20T04:23:39;6.47;;;4.65;;
41219;SDS011;26951;47.338;9.196;2023-12-20T04:26:23;6.63;;;4.90;;
41219;SDS011;26951;47.338;9.196;2023-12-20T04:29:07;5.75;;;4.38;;
41219;SDS011;26951;47.338;9.196;2023-12-20T04:31:51;5.65;;;4.35;;
41219;SDS011;26951;47.338;9.196;2023-12-20T04:34:36;5.53;;;4.25;;
41219;SDS011;26951;47.338;9.196;2023-12-20T04:37:20;5.77;;;4.50;;
41219;SDS011;26951;47.338;9.196;2023-12-20T04:40:04;6.13;;;4.40;;
41219;SDS011;26951;47.338;9.196;2023-12-20T04:42:49;5.47;;;4.15;;
41219;SDS011;26951;47.338;9.196;2023-12-20T04:45:33;4.40;;;3.80;;
41219;SDS011;26951;47.338;9.196;2023-12-20T04:48:17;4.85;;;4.25;;
41219;SDS011;26951;47.338;9.196;2023-12-20T04:51:01;6.95;;;3.80;;
41219;SDS011;26951;47.338;9.196;2023-12-20T04:53:46;4.53;;;4.00;;
41219;SDS011;26951;47.338;9.196;2023-12-20T04:56:30;4.10;;;3.60;;
41219;SDS011;26951;47.338;9.196;2023-12-20T04:59:14;4.82;;;3.80;;
41219;SDS011;26951;47.338;9.196;2023-12-20T05:01:58;4.50;;;3.35;;
41219;SDS011;26951;47.338;9.196;2023-12-20T05:04:42;4.50;;;3.72;;
41219;SDS011;26951;47.338;9.196;2023-12-20T05:07:27;3.90;;;3.35;;
41219;SDS011;26951;47.338;9.196;2023-12-20T05:10:11;4.43;;;3.63;;
41219;SDS011;26951;47.338;9.196;2023-12-20T05:12:55;5.85;;;4.15;;
41219;SDS011;26951;47.338;9.196;2023-12-20T05:15:39;5.00;;;3.58;;
41219;SDS011;26951;47.338;9.196;2023-12-20T05:18:23;4.43;;;3.28;;
41219;SDS011;26951;47.338;9.196;2023-12-20T05:21:08;6.13;;;3.78;;
41219;SDS011;26951;47.338;9.196;2023-12-20T05:23:52;4.22;;;3.72;;
41219;SDS011;26951;47.338;9.196;2023-12-20T05:26:36;4.13;;;3.53;;
41219;SDS011;26951;47.338;9.196;2023-12-20T05:29:20;4.65;;;3.88;;
41219;SDS011;26951;47.338;9.196;2023-12-20T05:32:04;3.88;;;3.47;;
41219;SDS011;26951;47.338;9.196;2023-12-20T05:34:48;4.65;;;3.63;;
41219;SDS011;26951;47.338;9.196;2023-12-20T05:37:32;4.55;;;3.55;;
41219;SDS011;26951;47.338;9.196;2023-12-20T05:40:17;3.70;;;3.13;;
41219;SDS011;26951;47.338;9.196;2023-12-20T05:43:01;4.10;;;3.40;;
41219;SDS011;26951;47.338;9.196;2023-12-20T05:45:45;3.70;;;3.07;;
41219;SDS011;26951;47.338;9.196;2023-12-20T05:48:29;3.97;;;3.55;;
41219;SDS011;26951;47.338;9.196;2023-12-20T05:51:13;4.15;;;3.20;;
41219;SDS011;26951;47.338;9.196;2023-12-20T05:53:58;4.15;;;3.42;;
41219;SDS011;26951;47.338;9.196;2023-12-20T05:56:42;4.57;;;3.37;;
41219;SDS011;26951;47.338;9.196;2023-12-20T05:59:26;4.38;;;3.40;;
41219;SDS011;26951;47.338;9.196;2023-12-20T06:02:10;4.95;;;3.53;;
41219;SDS011;26951;47.338;9.196;2023-12-20T06:04:54;4.20;;;3.40;;
41219;SDS011;26951;47.338;9.196;2023-12-20T06:07:39;3.95;;;3.20;;
41219;SDS011;26951;47.338;9.196;2023-12-20T06:10:23;3.92;;;3.22;;
41219;SDS011;26951;47.338;9.196;2023-12-20T06:13:07;3.65;;;3.03;;
41219;SDS011;26951;47.338;9.196;2023-12-20T06:15:51;2.92;;;2.60;;
41219;SDS011;26951;47.338;9.196;2023-12-20T06:18:35;4.10;;;2.97;;
41219;SDS011;26951;47.338;9.196;2023-12-20T06:21:20;3.40;;;2.90;;
41219;SDS011;26951;47.338;9.196;2023-12-20T06:24:04;3.05;;;2.75;;
41219;SDS011;26951;47.338;9.196;2023-12-20T06:26:49;3.28;;;2.75;;
41219;SDS011;26951;47.338;9.196;2023-12-20T06:29:33;3.85;;;2.67;;
41219;SDS011;26951;47.338;9.196;2023-12-20T06:32:18;2.88;;;2.58;;
41219;SDS011;26951;47.338;9.196;2023-12-20T06:35:02;2.95;;;2.50;;
41219;SDS011;26951;47.338;9.196;2023-12-20T06:37:48;2.97;;;2.50;;
41219;SDS011;26951;47.338;9.196;2023-12-20T06:40:32;2.25;;;1.98;;
41219;SDS011;26951;47.338;9.196;2023-12-20T06:43:16;2.28;;;2.08;;
41219;SDS011;26951;47.338;9.196;2023-12-20T06:46:01;1.73;;;1.63;;
41219;SDS011;26951;47.338;9.196;2023-12-20T06:48:45;2.15;;;1.70;;
41219;SDS011;26951;47.338;9.196;2023-12-20T06:51:29;2.17;;;1.63;;
41219;SDS011;26951;47.338;9.196;2023-12-20T06:54:14;2.42;;;1.77;;
41219;SDS011;26951;47.338;9.196;2023-12-20T06:56:58;2.30;;;1.95;;
41219;SDS011;26951;47.338;9.196;2023-12-20T06:59:42;2.03;;;1.83;;
41219;SDS011;26951;47.338;9.196;2023-12-20T07:02:27;1.92;;;1.55;;
41219;SDS011;26951;47.338;9.196;2023-12-20T07:05:16;1.40;;;1.30;;
41219;SDS011;26951;47.338;9.196;2023-12-20T07:08:01;1.80;;;1.55;;
41219;SDS011;26951;47.338;9.196;2023-12-20T07:10:45;1.67;;;1.40;;
41219;SDS011;26951;47.338;9.196;2023-12-20T07:13:29;1.75;;;1.50;;
41219;SDS011;26951;47.338;9.196;2023-12-20T07:16:13;1.58;;;1.20;;
41219;SDS011;26951;47.338;9.196;2023-12-20T07:18:57;1.52;;;1.38;;
41219;SDS011;26951;47.338;9.196;2023-12-20T07:21:41;1.80;;;1.42;;
41219;SDS011;26951;47.338;9.196;2023-12-20T07:24:25;1.30;;;1.20;;
41219;SDS011;26951;47.338;9.196;2023-12-20T07:27:09;2.05;;;1.20;;
41219;SDS011;26951;47.338;9.196;2023-12-20T07:29:53;1.60;;;1.40;;
41219;SDS011;26951;47.338;9.196;2023-12-20T07:32:37;1.33;;;1.23;;
41219;SDS011;26951;47.338;9.196;2023-12-20T07:35:23;1.10;;;1.00;;
41219;SDS011;26951;47.338;9.196;2023-12-20T07:38:07;1.63;;;1.48;;
41219;SDS011;26951;47.338;9.196;2023-12-20T07:40:51;0.90;;;0.90;;
41219;SDS011;26951;47.338;9.196;2023-12-20T07:43:35;1.10;;;1.00;;
41219;SDS011;26951;47.338;9.196;2023-12-20T07:46:20;1.25;;;1.15;;
41219;SDS011;26951;47.338;9.196;2023-12-20T07:49:06;0.75;;;0.70;;
41219;SDS011;26951;47.338;9.196;2023-12-20T07:51:52;1.15;;;1.05;;
41219;SDS011;26951;47.338;9.196;2023-12-20T07:54:36;2.38;;;1.10;;
41219;SDS011;26951;47.338;9.196;2023-12-20T07:57:20;1.30;;;1.20;;
41219;SDS011;26951;47.338;9.196;2023-12-20T08:00:05;1.48;;;1.15;;
41219;SDS011;26951;47.338;9.196;2023-12-20T08:02:50;1.58;;;1.48;;
41219;SDS011;26951;47.338;9.196;2023-12-20T08:05:34;1.38;;;1.27;;
41219;SDS011;26951;47.338;9.196;2023-12-20T08:08:18;1.00;;;0.90;;
41219;SDS011;26951;47.338;9.196;2023-12-20T08:11:02;1.48;;;0.95;;
41219;SDS011;26951;47.338;9.196;2023-12-20T08:13:46;1.35;;;1.25;;
41219;SDS011;26951;47.338;9.196;2023-12-20T08:16:31;1.10;;;1.00;;
41219;SDS011;26951;47.338;9.196;2023-12-20T08:19:15;2.80;;;1.52;;
41219;SDS011;26951;47.338;9.196;2023-12-20T08:21:59;1.33;;;1.20;;
41219;SDS011;26951;47.338;9.196;2023-12-20T08:24:43;1.30;;;1.20;;
41219;SDS011;26951;47.338;9.196;2023-12-20T08:27:27;1.30;;;1.20;;
41219;SDS011;26951;47.338;9.196;2023-12-20T08:30:11;1.25;;;1.15;;
41219;SDS011;26951;47.338;9.196;2023-12-20T08:32:57;1.30;;;1.20;;
41219;SDS011;26951;47.338;9.196;2023-12-20T08:35:43;1.20;;;1.10;;
41219;SDS011;26951;47.338;9.196;2023-12-20T08:38:27;1.80;;;1.40;;
41219;SDS011;26951;47.338;9.196;2023-12-20T08:41:11;1.20;;;1.10;;
41219;SDS011;26951;47.338;9.196;2023-12-20T08:43:56;1.20;;;1.08;;
41219;SDS011;26951;47.338;9.196;2023-12-20T08:46:40;1.13;;;1.00;;
41219;SDS011;26951;47.338;9.196;2023-12-20T08:49:25;1.60;;;1.30;;
41219;SDS011;26951;47.338;9.196;2023-12-20T08:52:09;1.10;;;1.00;;
41219;SDS011;26951;47.338;9.196;2023-12-20T08:54:53;1.27;;;1.15;;
41219;SDS011;26951;47.338;9.196;2023-12-20T08:57:37;1.25;;;1.10;;
41219;SDS011;26951;47.338;9.196;2023-12-20T09:00:22;1.60;;;1.08;;
41219;SDS011;26951;47.338;9.196;2023-12-20T09:03:08;1.10;;;1.00;;
41219;SDS011;26951;47.338;9.196;2023-12-20T09:05:52;2.58;;;1.20;;
41219;SDS011;26951;47.338;9.196;2023-12-20T09:08:36;0.90;;;0.90;;
41219;SDS011;26951;47.338;9.196;2023-12-20T09:11:20;0.77;;;0.75;;
41219;SDS011;26951;47.338;9.196;2023-12-20T09:14:04;1.25;;;0.98;;
41219;SDS011;26951;47.338;9.196;2023-12-20T09:16:48;1.10;;;1.00;;
41219;SDS011;26951;47.338;9.196;2023-12-20T09:19:35;1.30;;;1.20;;
41219;SDS011;26951;47.338;9.196;2023-12-20T09:22:19;0.70;;;0.70;;
41219;SDS011;26951;47.338;9.196;2023-12-20T09:25:04;1.00;;;0.90;;
41219;SDS011;26951;47.338;9.196;2023-12-20T09:27:48;1.75;;;1.38;;
41219;SDS011;26951;47.338;9.196;2023-12-20T09:30:32;0.85;;;0.85;;
41219;SDS011;26951;47.338;9.196;2023-12-20T09:33:16;1.50;;;0.82;;
41219;SDS011;26951;47.338;9.196;2023-12-20T09:36:00;1.20;;;1.10;;
41219;SDS011;26951;47.338;9.196;2023-12-20T09:38:44;2.75;;;1.33;;
41219;SDS011;26951;47.338;9.196;2023-12-20T09:41:29;1.70;;;1.10;;
41219;SDS011;26951;47.338;9.196;2023-12-20T09:44:20;1.42;;;1.33;;
41219;SDS011;26951;47.338;9.196;2023-12-20T09:47:05;1.65;;;1.05;;
41219;SDS011;26951;47.338;9.196;2023-12-20T09:49:51;1.10;;;1.00;;
41219;SDS011;26951;47.338;9.196;2023-12-20T09:52:36;0.85;;;0.85;;
41219;SDS011;26951;47.338;9.196;2023-12-20T09:55:22;1.42;;;1.30;;
41219;SDS011;26951;47.338;9.196;2023-12-20T09:58:09;1.58;;;1.48;;
41219;SDS011;26951;47.338;9.196;2023-12-20T10:00:53;1.40;;;1.27;;
41219;SDS011;26951;47.338;9.196;2023-12-20T10:03:39;1.35;;;1.20;;
41219;SDS011;26951;47.338;9.196;2023-12-20T10:06:25;1.45;;;1.30;;
41219;SDS011;26951;47.338;9.196;2023-12-20T10:09:09;1.30;;;1.10;;
41219;SDS011;26951;47.338;9.196;2023-12-20T10:11:54;1.38;;;1.27;;
41219;SDS011;26951;47.338;9.196;2023-12-20T10:14:39;1.38;;;1.27;;
41219;SDS011;26951;47.338;9.196;2023-12-20T10:17:23;1.45;;;1.20;;
41219;SDS011;26951;47.338;9.196;2023-12-20T10:20:07;1.27;;;1.10;;
41219;SDS011;26951;47.338;9.196;2023-12-20T10:22:53;0.93;;;0.90;;
41219;SDS011;26951;47.338;9.196;2023-12-20T10:25:39;0.98;;;0.95;;
41219;SDS011;26951;47.338;9.196;2023-12-20T10:28:25;1.20;;;1.05;;
41219;SDS011;26951;47.338;9.196;2023-12-20T10:31:25;1.20;;;1.10;;
41219;SDS011;26951;47.338;9.196;2023-12-20T10:34:11;1.02;;;0.90;;
41219;SDS011;26951;47.338;9.196;2023-12-20T10:36:55;0.82;;;0.80;;
41219;SDS011;26951;47.338;9.196;2023-12-20T10:39:39;0.80;;;0.80;;
41219;SDS011;26951;47.338;9.196;2023-12-20T10:42:26;1.05;;;0.95;;
41219;SDS011;26951;47.338;9.196;2023-12-20T10:45:11;1.25;;;0.95;;
41219;SDS011;26951;47.338;9.196;2023-12-20T10:47:55;2.13;;;0.80;;
41219;SDS011;26951;47.338;9.196;2023-12-20T10:50:43;1.17;;;1.08;;
41219;SDS011;26951;47.338;9.196;2023-12-20T10:53:27;0.70;;;0.70;;
41219;SDS011;26951;47.338;9.196;2023-12-20T10:56:12;0.95;;;0.90;;
41219;SDS011;26951;47.338;9.196;2023-12-20T10:59:01;2.50;;;1.10;;
41219;SDS011;26951;47.338;9.196;2023-12-20T11:01:48;2.08;;;1.00;;
41219;SDS011;26951;47.338;9.196;2023-12-20T11:04:40;0.70;;;0.70;;
41219;SDS011;26951;47.338;9.196;2023-12-20T11:07:38;0.85;;;0.85;;
41219;SDS011;26951;47.338;9.196;2023-12-20T11:10:34;0.88;;;0.88;;
41219;SDS011;26951;47.338;9.196;2023-12-20T11:16:47;0.90;;;0.90;;
41219;SDS011;26951;47.338;9.196;2023-12-20T11:19:31;1.20;;;0.82;;
41219;SDS011;26951;47.338;9.196;2023-12-20T11:22:15;0.80;;;0.80;;
41219;SDS011;26951;47.338;9.196;2023-12-20T11:25:06;1.48;;;0.77;;
41219;SDS011;26951;47.338;9.196;2023-12-20T11:28:08;0.90;;;0.90;;
41219;SDS011;26951;47.338;9.196;2023-12-20T11:30:54;1.42;;;0.95;;
41219;SDS011;26951;47.338;9.196;2023-12-20T11:33:39;0.73;;;0.73;;
41219;SDS011;26951;47.338;9.196;2023-12-20T11:36:24;0.73;;;0.65;;
41219;SDS011;26951;47.338;9.196;2023-12-20T11:39:09;0.88;;;0.73;;
41219;SDS011;26951;47.338;9.196;2023-12-20T11:41:54;0.93;;;0.90;;
41219;SDS011;26951;47.338;9.196;2023-12-20T11:44:40;0.77;;;0.77;;
41219;SDS011;26951;47.338;9.196;2023-12-20T11:47:26;0.70;;;0.70;;
41219;SDS011;26951;47.338;9.196;2023-12-20T11:50:11;0.80;;;0.80;;
41219;SDS011;26951;47.338;9.196;2023-12-20T11:52:55;0.95;;;0.75;;
41219;SDS011;26951;47.338;9.196;2023-12-20T11:55:39;0.65;;;0.65;;
41219;SDS011;26951;47.338;9.196;2023-12-20T11:58:23;1.00;;;0.90;;
41219;SDS011;26951;47.338;9.196;2023-12-20T12:01:08;1.00;;;0.90;;
41219;SDS011;26951;47.338;9.196;2023-12-20T12:04:02;0.68;;;0.68;;
41219;SDS011;26951;47.338;9.196;2023-12-20T12:06:49;1.23;;;0.88;;
41219;SDS011;26951;47.338;9.196;2023-12-20T12:09:34;1.08;;;0.88;;
41219;SDS011;26951;47.338;9.196;2023-12-20T12:12:19;0.77;;;0.77;;
41219;SDS011;26951;47.338;9.196;2023-12-20T12:15:04;0.90;;;0.90;;
41219;SDS011;26951;47.338;9.196;2023-12-20T12:17:55;1.10;;;0.95;;
41219;SDS011;26951;47.338;9.196;2023-12-20T12:20:39;1.00;;;0.85;;
41219;SDS011;26951;47.338;9.196;2023-12-20T12:23:24;0.95;;;0.90;;
41219;SDS011;26951;47.338;9.196;2023-12-20T12:26:08;0.70;;;0.70;;
41219;SDS011;26951;47.338;9.196;2023-12-20T12:28:53;0.70;;;0.70;;
41219;SDS011;26951;47.338;9.196;2023-12-20T12:31:38;0.60;;;0.60;;
41219;SDS011;26951;47.338;9.196;2023-12-20T12:34:23;0.73;;;0.70;;
41219;SDS011;26951;47.338;9.196;2023-12-20T12:37:10;0.80;;;0.80;;
41219;SDS011;26951;47.338;9.196;2023-12-20T12:39:54;1.00;;;1.00;;
41219;SDS011;26951;47.338;9.196;2023-12-20T12:42:39;1.00;;;0.90;;
41219;SDS011;26951;47.338;9.196;2023-12-20T12:45:24;0.75;;;0.75;;
41219;SDS011;26951;47.338;9.196;2023-12-20T12:48:10;1.30;;;1.20;;
41219;SDS011;26951;47.338;9.196;2023-12-20T12:50:54;1.85;;;1.40;;
41219;SDS011;26951;47.338;9.196;2023-12-20T12:53:42;1.58;;;1.48;;
41219;SDS011;26951;47.338;9.196;2023-12-20T12:56:26;2.47;;;1.92;;
41219;SDS011;26951;47.338;9.196;2023-12-20T12:59:10;1.60;;;1.50;;
41219;SDS011;26951;47.338;9.196;2023-12-20T13:01:54;1.83;;;1.60;;
41219;SDS011;26951;47.338;9.196;2023-12-20T13:04:39;1.88;;;1.67;;
41219;SDS011;26951;47.338;9.196;2023-12-20T13:07:23;1.83;;;1.60;;
41219;SDS011;26951;47.338;9.196;2023-12-20T13:10:07;1.80;;;1.70;;
41219;SDS011;26951;47.338;9.196;2023-12-20T13:12:52;1.60;;;1.50;;
41219;SDS011;26951;47.338;9.196;2023-12-20T13:15:36;2.22;;;2.00;;
41219;SDS011;26951;47.338;9.196;2023-12-20T13:18:23;1.85;;;1.67;;
41219;SDS011;26951;47.338;9.196;2023-12-20T13:21:07;2.15;;;1.73;;
41219;SDS011;26951;47.338;9.196;2023-12-20T13:23:52;2.03;;;1.83;;
41219;SDS011;26951;47.338;9.196;2023-12-20T13:26:37;2.17;;;1.80;;
41219;SDS011;26951;47.338;9.196;2023-12-20T13:29:21;2.53;;;2.08;;
41219;SDS011;26951;47.338;9.196;2023-12-20T13:32:05;2.28;;;2.08;;
41219;SDS011;26951;47.338;9.196;2023-12-20T13:34:50;2.90;;;2.38;;
41219;SDS011;26951;47.338;9.196;2023-12-20T13:37:34;2.60;;;2.38;;
41219;SDS011;26951;47.338;9.196;2023-12-20T13:40:18;2.92;;;2.58;;
41219;SDS011;26951;47.338;9.196;2023-12-20T13:43:02;3.08;;;2.55;;
41219;SDS011;26951;47.338;9.196;2023-12-20T13:45:47;3.40;;;2.63;;
41219;SDS011;26951;47.338;9.196;2023-12-20T13:48:32;2.50;;;2.30;;
41219;SDS011;26951;47.338;9.196;2023-12-20T13:51:16;3.17;;;2.70;;
41219;SDS011;26951;47.338;9.196;2023-12-20T13:54:00;2.58;;;2.33;;
41219;SDS011;26951;47.338;9.196;2023-12-20T13:56:44;2.30;;;2.03;;
41219;SDS011;26951;47.338;9.196;2023-12-20T13:59:28;2.70;;;2.08;;
41219;SDS011;26951;47.338;9.196;2023-12-20T14:02:12;2.47;;;2.00;;
41219;SDS011;26951;47.338;9.196;2023-12-20T14:04:56;2.33;;;2.10;;
41219;SDS011;26951;47.338;9.196;2023-12-20T14:07:41;2.17;;;1.80;;
41219;SDS011;26951;47.338;9.196;2023-12-20T14:10:28;2.60;;;2.40;;
41219;SDS011;26951;47.338;9.196;2023-12-20T14:13:12;2.72;;;2.17;;
41219;SDS011;26951;47.338;9.196;2023-12-20T14:15:56;2.05;;;1.83;;
41219;SDS011;26951;47.338;9.196;2023-12-20T14:18:42;2.90;;;2.00;;
41219;SDS011;26951;47.338;9.196;2023-12-20T14:21:26;2.25;;;2.00;;
41219;SDS011;26951;47.338;9.196;2023-12-20T14:24:11;2.17;;;1.98;;
41219;SDS011;26951;47.338;9.196;2023-12-20T14:26:58;2.42;;;2.22;;
41219;SDS011;26951;47.338;9.196;2023-12-20T14:29:42;2.00;;;1.80;;
41219;SDS011;26951;47.338;9.196;2023-12-20T14:32:26;1.90;;;1.70;;
41219;SDS011;26951;47.338;9.196;2023-12-20T14:35:11;1.75;;;1.65;;
41219;SDS011;26951;47.338;9.196;2023-12-20T14:37:55;2.28;;;1.70;;
41219;SDS011;26951;47.338;9.196;2023-12-20T14:40:39;2.58;;;2.15;;
41219;SDS011;26951;47.338;9.196;2023-12-20T14:43:24;2.83;;;1.80;;
